Mount Hulda, Missouri
Current Conditions -  °F | °C
As of 2:07 AM on Friday 19 Dec 2014 (Local Time) from KDMO Reporting Station
Moderate Fog Moderate Fog  
Wind Chill: -2°   Ceiling: 200
Heat Index:   Visibility: 0.5mi
Dew Point:   Wind: 6mph
Humidity: 96%   Direction: 80°E
Pressure: 30.25"   Gusts: NA
Location:  38.4446°N, 93.178°W
Report Text: KDMO 190807Z AUTO 08005KT 1/2SM FG VV002 01/00 A3025 RMK AO2 T00060000
Loading
Personal Weather Stations






























Interactive Weather Map New forecast layout! Learn more

10-Day Weather Forecast

Advertisements
Track Severe Weather on mobile